TimeEDT,TemperatureF,Dew PointF,Humidity,Sea Level PressureIn,VisibilityMPH,Wind Direction,Wind SpeedMPH,Gust SpeedMPH,PrecipitationIn,Events,Conditions,WindDirDegrees,DateUTC
12:15 AM,33.8,33.8,100,29.35,10.0,Calm,Calm,-,N/A,,Mostly Cloudy,0,2012-10-31 04:15:00
12:35 AM,33.8,33.8,100,29.35,10.0,Calm,Calm,-,N/A,,Overcast,0,2012-10-31 04:35:00
1:15 AM,33.8,32.0,93,29.35,10.0,South,4.6,-,N/A,,Overcast,170,2012-10-31 05:15:00
1:35 AM,33.8,32.0,93,29.35,10.0,Calm,Calm,-,N/A,,Overcast,0,2012-10-31 05:35:00
1:55 AM,33.8,32.0,93,29.35,10.0,Calm,Calm,-,N/A,,Mostly Cloudy,0,2012-10-31 05:55:00
2:15 AM,33.8,32.0,93,29.35,10.0,Calm,Calm,-,N/A,,Overcast,0,2012-10-31 06:15:00
2:35 AM,33.8,32.0,93,29.35,10.0,Calm,Calm,-,N/A,,Overcast,0,2012-10-31 06:35:00
2:55 AM,33.8,32.0,93,29.35,10.0,Calm,Calm,-,N/A,,Overcast,0,2012-10-31 06:55:00
3:15 AM,33.8,32.0,93,29.35,5.0,South,4.6,-,N/A,Snow,Light Snow,180,2012-10-31 07:15:00
3:55 AM,32.0,32.0,100,29.35,10.0,Calm,Calm,-,N/A,,Overcast,0,2012-10-31 07:55:00
4:15 AM,32.0,32.0,100,29.35,10.0,Calm,Calm,-,N/A,,Mostly Cloudy,0,2012-10-31 08:15:00
4:35 AM,32.0,32.0,100,29.36,10.0,South,4.6,-,N/A,,Overcast,180,2012-10-31 08:35:00
4:55 AM,32.0,32.0,100,29.36,10.0,SSE,3.5,-,N/A,,Overcast,160,2012-10-31 08:55:00
5:15 AM,32.0,32.0,100,29.36,10.0,Calm,Calm,-,N/A,,Overcast,0,2012-10-31 09:15:00
5:35 AM,32.0,32.0,100,29.36,10.0,Calm,Calm,-,N/A,,Overcast,0,2012-10-31 09:35:00
5:55 AM,32.0,32.0,100,29.37,10.0,South,3.5,-,N/A,,Overcast,190,2012-10-31 09:55:00
6:15 AM,32.0,32.0,100,29.37,10.0,South,3.5,-,N/A,,Overcast,190,2012-10-31 10:15:00
6:35 AM,32.0,32.0,100,29.38,10.0,South,3.5,-,N/A,,Overcast,190,2012-10-31 10:35:00
6:55 AM,32.0,32.0,100,29.38,10.0,South,3.5,-,N/A,,Overcast,190,2012-10-31 10:55:00
7:15 AM,32.0,32.0,100,29.38,10.0,South,4.6,-,N/A,,Overcast,190,2012-10-31 11:15:00
7:35 AM,32.0,32.0,100,29.38,10.0,SSW,3.5,-,N/A,,Overcast,200,2012-10-31 11:35:00
8:15 AM,32.0,32.0,100,29.38,10.0,Calm,Calm,-,N/A,,Overcast,0,2012-10-31 12:15:00
8:35 AM,32.0,32.0,100,29.38,10.0,Calm,Calm,-,N/A,,Overcast,0,2012-10-31 12:35:00
8:55 AM,32.0,32.0,100,29.39,10.0,Calm,Calm,-,N/A,,Overcast,0,2012-10-31 12:55:00
9:15 AM,32.0,32.0,100,29.38,10.0,South,4.6,-,N/A,,Overcast,190,2012-10-31 13:15:00
9:35 AM,32.0,32.0,100,29.39,10.0,Calm,Calm,-,N/A,,Overcast,0,2012-10-31 13:35:00
9:55 AM,32.0,32.0,100,29.38,10.0,SSW,3.5,-,N/A,,Overcast,200,2012-10-31 13:55:00
10:15 AM,33.8,32.0,93,29.39,10.0,SSW,3.5,-,N/A,,Overcast,210,2012-10-31 14:15:00
10:35 AM,33.8,32.0,93,29.39,10.0,SSW,4.6,-,N/A,,Overcast,210,2012-10-31 14:35:00
10:55 AM,33.8,32.0,93,29.38,10.0,SW,3.5,-,N/A,,Overcast,230,2012-10-31 14:55:00
11:15 AM,33.8,32.0,93,29.39,10.0,SW,4.6,-,N/A,,Overcast,220,2012-10-31 15:15:00
11:35 AM,33.8,32.0,93,29.39,10.0,Calm,Calm,-,N/A,,Overcast,0,2012-10-31 15:35:00
11:55 AM,33.8,32.0,93,29.39,10.0,Calm,Calm,-,N/A,,Overcast,0,2012-10-31 15:55:00
12:15 PM,33.8,32.0,93,29.40,10.0,Calm,Calm,-,N/A,,Overcast,0,2012-10-31 16:15:00
12:35 PM,35.6,33.8,93,29.40,10.0,Calm,Calm,-,N/A,,Overcast,0,2012-10-31 16:35:00
12:55 PM,35.6,33.8,93,29.40,10.0,Calm,Calm,-,N/A,,Overcast,0,2012-10-31 16:55:00
1:15 PM,35.6,33.8,93,29.40,10.0,SW,3.5,-,N/A,,Overcast,220,2012-10-31 17:15:00
1:35 PM,35.6,33.8,93,29.40,10.0,SW,3.5,-,N/A,,Overcast,230,2012-10-31 17:35:00
1:55 PM,35.6,33.8,93,29.41,10.0,Calm,Calm,-,N/A,,Overcast,0,2012-10-31 17:55:00
2:15 PM,35.6,33.8,93,29.41,10.0,SW,3.5,-,N/A,,Overcast,230,2012-10-31 18:15:00
2:35 PM,35.6,33.8,93,29.41,10.0,Calm,Calm,-,N/A,,Light Drizzle,0,2012-10-31 18:35:00
2:55 PM,35.6,33.8,93,29.41,10.0,Calm,Calm,-,N/A,,Overcast,0,2012-10-31 18:55:00
3:15 PM,35.6,33.8,93,29.41,10.0,Calm,Calm,-,N/A,,Overcast,0,2012-10-31 19:15:00
3:55 PM,35.6,35.6,100,29.42,10.0,SSW,3.5,-,N/A,,Overcast,200,2012-10-31 19:55:00
4:15 PM,35.6,35.6,100,29.42,10.0,SW,3.5,-,N/A,,Light Drizzle,230,2012-10-31 20:15:00
4:35 PM,35.6,33.8,93,29.42,10.0,SW,5.8,-,N/A,,Light Drizzle,230,2012-10-31 20:35:00
4:55 PM,35.6,33.8,93,29.42,10.0,SW,3.5,-,N/A,Rain,Light Rain,230,2012-10-31 20:55:00
5:15 PM,35.6,33.8,93,29.43,10.0,SW,3.5,-,N/A,Rain,Light Rain,220,2012-10-31 21:15:00
5:35 PM,35.6,33.8,93,29.43,7.0,SW,3.5,-,N/A,Rain,Rain,230,2012-10-31 21:35:00
5:55 PM,35.6,33.8,93,29.44,5.0,Calm,Calm,-,N/A,,Drizzle,0,2012-10-31 21:55:00
6:15 PM,35.6,35.6,100,29.44,4.0,SSW,4.6,-,N/A,Rain,Light Rain,210,2012-10-31 22:15:00
6:35 PM,35.6,35.6,100,29.44,5.0,SW,4.6,-,N/A,Rain,Light Rain,220,2012-10-31 22:35:00
6:55 PM,35.6,35.6,100,29.45,5.0,SW,3.5,-,N/A,Rain,Light Rain,220,2012-10-31 22:55:00
7:15 PM,35.6,35.6,100,29.44,3.0,SSW,5.8,-,N/A,Rain,Rain,210,2012-10-31 23:15:00
7:35 PM,35.6,35.6,100,29.45,1.8,SSW,6.9,-,N/A,,Drizzle,210,2012-10-31 23:35:00
7:55 PM,35.6,35.6,100,29.44,5.0,SW,4.6,-,N/A,,Drizzle,230,2012-10-31 23:55:00
8:15 PM,35.6,35.6,100,29.44,4.0,SSW,5.8,-,N/A,,Drizzle,210,2012-11-01 00:15:00
8:35 PM,35.6,35.6,100,29.44,0.5,SSW,5.8,-,N/A,,Light Drizzle,210,2012-11-01 00:35:00
8:55 PM,35.6,35.6,100,29.44,1.0,SW,4.6,-,N/A,,Light Drizzle,230,2012-11-01 00:55:00
9:15 PM,35.6,35.6,100,29.44,1.5,SW,4.6,-,N/A,Rain,Rain,220,2012-11-01 01:15:00
9:35 PM,35.6,35.6,100,29.44,2.0,SW,4.6,-,N/A,Rain,Light Rain,220,2012-11-01 01:35:00
10:15 PM,35.6,35.6,100,29.44,0.2,SSW,5.8,-,N/A,Rain,Light Rain,210,2012-11-01 02:15:00
10:35 PM,35.6,35.6,100,29.44,0.5,SW,6.9,-,N/A,Rain,Light Rain,230,2012-11-01 02:35:00
10:55 PM,37.4,37.4,100,29.44,4.0,West,4.6,-,N/A,,Drizzle,270,2012-11-01 02:55:00
11:15 PM,37.4,37.4,100,29.44,5.0,West,9.2,-,N/A,,Drizzle,270,2012-11-01 03:15:00
11:35 PM,37.4,37.4,100,29.45,10.0,West,6.9,-,N/A,,Light Drizzle,280,2012-11-01 03:35:00
11:55 PM,37.4,37.4,100,29.45,7.0,West,8.1,-,N/A,,Drizzle,260,2012-11-01 03:55:00